Time;durP1;ratioP1;P1;durP2;ratioP2;P2;SDS_P1;SDS_P2;PMS_P1;PMS_P2;Temp;Humidity;BMP_temperature;BMP_pressure;BME280_temperature;BME280_humidity;BME280_pressure;Samples;Min_cycle;Max_cycle;Signal;HPM_P1;HPM_P2
2023/03/19 00:01:28;;;;;;;26.77;14.30;;;7.50;99.90;;;;;;4995056;28;20202;-93
2023/03/19 00:03:55;;;;;;;26.37;14.03;;;7.50;99.90;;;;;;4994935;28;20191;-93
2023/03/19 00:06:22;;;;;;;24.03;13.80;;;7.50;99.90;;;;;;4995122;28;20198;-94
2023/03/19 00:08:50;;;;;;;23.43;14.20;;;7.50;99.90;;;;;;4995293;28;20200;-94
2023/03/19 00:11:17;;;;;;;24.13;13.77;;;7.50;99.90;;;;;;4993882;28;20212;-94
2023/03/19 00:13:44;;;;;;;22.73;13.57;;;7.50;99.90;;;;;;4995254;28;20226;-93
2023/03/19 00:16:11;;;;;;;23.90;13.53;;;7.50;99.90;;;;;;4994835;28;20206;-92
2023/03/19 00:18:38;;;;;;;22.40;13.70;;;7.50;99.90;;;;;;4995219;28;20199;-93
2023/03/19 00:21:06;;;;;;;23.77;13.53;;;7.50;99.90;;;;;;4995151;28;20197;-94
2023/03/19 00:23:33;;;;;;;24.27;13.93;;;7.40;99.90;;;;;;4995504;28;20253;-93
2023/03/19 00:26:01;;;;;;;23.23;13.63;;;7.40;99.90;;;;;;5007196;28;20202;-93
2023/03/19 00:28:28;;;;;;;24.90;13.70;;;7.40;99.90;;;;;;4994541;28;20202;-94
2023/03/19 00:30:55;;;;;;;24.83;14.23;;;7.40;99.90;;;;;;4994256;28;20228;-94
2023/03/19 00:33:21;;;;;;;32.10;16.47;;;7.40;99.90;;;;;;4994962;28;20221;-94
2023/03/19 00:35:48;;;;;;;28.33;15.00;;;7.40;99.90;;;;;;4995023;28;20211;-93
2023/03/19 00:38:15;;;;;;;29.27;15.83;;;7.40;99.90;;;;;;4994554;28;20199;-94
2023/03/19 00:40:42;;;;;;;34.87;17.17;;;7.30;99.90;;;;;;5006255;28;20222;-95
2023/03/19 00:43:11;;;;;;;32.37;16.70;;;7.30;99.90;;;;;;4994670;28;20203;-93
2023/03/19 00:45:37;;;;;;;33.17;16.70;;;7.30;99.90;;;;;;4994710;28;20219;-93
2023/03/19 00:48:05;;;;;;;33.50;17.20;;;7.30;99.90;;;;;;4995142;28;20199;-93
2023/03/19 00:50:32;;;;;;;30.03;15.67;;;7.20;99.90;;;;;;4994552;28;20627;-94
2023/03/19 00:52:58;;;;;;;23.80;14.37;;;7.20;99.90;;;;;;4994835;28;20217;-94
2023/03/19 00:55:26;;;;;;;20.80;13.50;;;7.20;99.90;;;;;;4994624;28;20206;-94
2023/03/19 00:57:53;;;;;;;22.87;13.13;;;7.10;99.90;;;;;;5000779;28;20199;-93
2023/03/19 01:00:21;;;;;;;23.57;13.53;;;7.00;99.90;;;;;;4994479;28;20673;-93
2023/03/19 01:02:48;;;;;;;24.00;13.40;;;6.90;99.90;;;;;;4997518;28;20197;-93
2023/03/19 01:05:15;;;;;;;22.17;13.23;;;6.90;99.90;;;;;;5000076;28;20199;-93
2023/03/19 01:07:42;;;;;;;25.37;13.70;;;6.80;99.90;;;;;;4994658;28;20237;-93
2023/03/19 01:10:10;;;;;;;19.43;12.27;;;6.80;1.00;;;;;;4997445;28;20211;-94
2023/03/19 01:12:38;;;;;;;20.93;12.63;;;6.80;1.00;;;;;;4998185;28;20698;-92
2023/03/19 01:15:07;;;;;;;23.73;12.87;;;6.70;1.00;;;;;;4998265;28;20206;-92
2023/03/19 01:17:36;;;;;;;19.50;12.60;;;6.60;1.00;;;;;;4997975;28;20282;-93
2023/03/19 01:20:02;;;;;;;23.47;14.27;;;6.60;1.00;;;;;;4986880;28;20205;-93
2023/03/19 01:22:29;;;;;;;26.73;15.17;;;6.60;1.00;;;;;;4997914;28;20209;-92
2023/03/19 01:24:56;;;;;;;34.33;17.13;;;6.50;1.00;;;;;;4997528;28;20235;-94
2023/03/19 01:27:23;;;;;;;30.33;15.80;;;6.50;1.00;;;;;;4997997;28;20202;-91
2023/03/19 01:29:50;;;;;;;25.03;14.00;;;6.60;1.00;;;;;;4997785;28;20196;-93
2023/03/19 01:32:17;;;;;;;25.87;13.40;;;6.50;1.00;;;;;;4998056;28;20717;-93
2023/03/19 01:34:45;;;;;;;20.60;13.27;;;6.60;1.00;;;;;;4997586;28;20574;-93
2023/03/19 01:37:12;;;;;;;21.27;13.37;;;6.60;1.00;;;;;;4997651;28;20216;-92
2023/03/19 01:39:39;;;;;;;19.57;12.47;;;6.60;1.00;;;;;;4997494;28;20197;-94
2023/03/19 01:42:07;;;;;;;22.40;13.23;;;6.50;1.00;;;;;;5002449;28;20196;-94
2023/03/19 01:44:36;;;;;;;25.57;13.77;;;6.60;1.00;;;;;;5005599;28;20206;-93
2023/03/19 01:47:06;;;;;;;39.83;18.87;;;6.50;1.00;;;;;;4986130;28;20193;-93
2023/03/19 01:49:34;;;;;;;33.90;17.33;;;6.50;1.00;;;;;;4997421;28;20675;-93
2023/03/19 01:52:04;;;;;;;37.57;18.33;;;6.50;1.00;;;;;;4997281;28;20224;-94
2023/03/19 01:54:33;;;;;;;35.07;16.53;;;6.50;1.00;;;;;;4987191;28;20623;-93
2023/03/19 01:57:05;;;;;;;35.57;16.27;;;6.50;1.00;;;;;;4997413;28;20672;-93
2023/03/19 01:59:36;;;;;;;32.43;15.60;;;6.50;1.00;;;;;;4997474;28;20545;-93
2023/03/19 02:02:08;;;;;;;31.17;15.53;;;6.60;1.00;;;;;;4995124;28;20204;-92
2023/03/19 02:04:36;;;;;;;27.17;15.13;;;6.60;1.00;;;;;;5004002;28;20205;-92
2023/03/19 02:07:05;;;;;;;30.57;15.47;;;6.60;1.00;;;;;;4996989;28;20207;-95
2023/03/19 02:09:32;;;;;;;29.77;15.33;;;6.70;1.00;;;;;;4996878;28;20199;-93
2023/03/19 02:12:01;;;;;;;24.33;14.37;;;6.70;1.00;;;;;;4997243;28;20218;-92
2023/03/19 02:14:27;;;;;;;26.13;14.30;;;6.80;1.00;;;;;;4997315;28;20268;-94
2023/03/19 02:16:55;;;;;;;24.37;14.43;;;6.80;1.00;;;;;;5009858;28;20209;-93
2023/03/19 02:19:28;;;;;;;27.90;14.93;;;6.90;1.00;;;;;;5009658;28;20216;-92
2023/03/19 02:21:56;;;;;;;27.47;15.77;;;6.90;1.00;;;;;;4996682;28;20201;-93
2023/03/19 02:24:29;;;;;;;26.73;14.67;;;6.90;1.00;;;;;;4996487;28;20233;-94
2023/03/19 02:26:58;;;;;;;31.53;15.70;;;7.00;1.00;;;;;;4995924;28;20198;-92
2023/03/19 02:29:25;;;;;;;29.13;14.53;;;7.00;1.00;;;;;;4995624;28;20202;-93
2023/03/19 02:31:52;;;;;;;22.77;13.33;;;7.00;1.00;;;;;;4996904;28;20292;-93
2023/03/19 02:34:35;;;;;;;28.93;14.90;;;6.90;1.00;;;;;;5006175;28;20209;-93
2023/03/19 02:37:07;;;;;;;27.90;15.03;;;6.90;1.00;;;;;;4989681;28;20216;-93
2023/03/19 02:39:39;;;;;;;23.63;13.63;;;6.90;1.00;;;;;;4996558;28;20202;-93
2023/03/19 02:42:09;;;;;;;28.40;15.10;;;7.00;1.00;;;;;;4996476;28;20687;-94
2023/03/19 02:44:36;;;;;;;22.90;13.50;;;7.00;1.00;;;;;;4996814;28;20278;-94
2023/03/19 02:47:03;;;;;;;22.03;14.10;;;7.00;1.00;;;;;;4996442;28;20207;-93
2023/03/19 02:49:30;;;;;;;22.93;14.27;;;7.00;1.00;;;;;;4995920;28;20222;-93
2023/03/19 02:51:57;;;;;;;24.93;14.10;;;7.00;1.00;;;;;;4995817;28;20969;-92
2023/03/19 02:54:24;;;;;;;22.03;14.10;;;6.90;1.00;;;;;;4996772;28;20202;-93
2023/03/19 02:56:51;;;;;;;26.30;14.70;;;6.90;1.00;;;;;;4996030;28;20206;-93
2023/03/19 02:59:19;;;;;;;22.50;13.37;;;6.90;1.00;;;;;;4996360;28;20202;-91
2023/03/19 03:01:46;;;;;;;22.47;13.83;;;7.00;1.00;;;;;;4995696;28;20214;-92
2023/03/19 03:04:15;;;;;;;21.17;13.30;;;7.00;1.00;;;;;;4995832;28;20203;-93
2023/03/19 03:06:42;;;;;;;27.17;14.23;;;7.00;1.00;;;;;;5005853;28;20210;-93
2023/03/19 03:09:09;;;;;;;21.93;13.70;;;7.10;1.00;;;;;;4998272;28;20205;-94
2023/03/19 03:11:36;;;;;;;22.27;13.93;;;7.20;1.00;;;;;;4995750;28;20219;-94
2023/03/19 03:14:03;;;;;;;27.63;15.33;;;7.30;1.00;;;;;;4996067;28;20248;-93
2023/03/19 03:16:31;;;;;;;23.87;14.77;;;7.40;1.00;;;;;;4996155;28;20207;-93
2023/03/19 03:18:58;;;;;;;23.47;14.33;;;7.40;1.00;;;;;;4996013;28;20551;-93
2023/03/19 03:21:25;;;;;;;21.77;13.77;;;7.50;1.00;;;;;;4995787;28;20195;-92
2023/03/19 03:23:52;;;;;;;23.93;14.63;;;7.60;1.00;;;;;;4997185;28;20597;-93
2023/03/19 03:26:19;;;;;;;25.67;14.83;;;7.60;1.00;;;;;;5005569;28;20204;-93
2023/03/19 03:28:46;;;;;;;22.67;13.97;;;7.60;1.00;;;;;;4995325;28;20207;-93
2023/03/19 03:31:13;;;;;;;22.17;14.20;;;7.60;1.00;;;;;;4995800;28;20574;-93
2023/03/19 03:33:41;;;;;;;26.43;14.80;;;7.60;1.00;;;;;;4995173;28;20203;-95
2023/03/19 03:36:08;;;;;;;24.00;14.90;;;7.60;1.00;;;;;;4995431;28;20212;-93
2023/03/19 03:38:35;;;;;;;25.40;14.93;;;7.60;99.90;;;;;;4995782;28;20927;-93
2023/03/19 03:41:02;;;;;;;24.50;14.73;;;7.60;99.90;;;;;;5002465;28;20207;-95
2023/03/19 03:43:28;;;;;;;26.83;15.63;;;7.50;99.90;;;;;;4995416;28;20210;-93
2023/03/19 03:45:55;;;;;;;26.67;15.33;;;7.50;99.90;;;;;;4995179;28;20198;-93
2023/03/19 03:48:22;;;;;;;24.47;15.03;;;7.50;99.90;;;;;;4995161;28;20290;-94
2023/03/19 03:50:51;;;;;;;27.13;15.00;;;7.50;99.90;;;;;;4994896;28;20205;-94
2023/03/19 03:53:17;;;;;;;22.13;14.50;;;7.40;99.90;;;;;;4995648;28;20695;-93
2023/03/19 03:55:44;;;;;;;26.33;15.40;;;7.40;99.90;;;;;;4995093;28;20212;-92
2023/03/19 03:58:11;;;;;;;27.47;15.83;;;7.30;99.90;;;;;;4995202;28;20656;-93
2023/03/19 04:00:38;;;;;;;32.60;16.47;;;7.30;99.90;;;;;;4994978;28;20664;-94
2023/03/19 04:03:05;;;;;;;27.07;16.23;;;7.20;1.00;;;;;;4995503;28;20203;-92
2023/03/19 04:05:32;;;;;;;25.33;15.73;;;7.20;1.00;;;;;;4995102;28;20213;-92
2023/03/19 04:08:02;;;;;;;23.77;15.63;;;7.20;1.00;;;;;;4995111;28;20211;-92
2023/03/19 04:10:29;;;;;;;26.60;16.70;;;7.10;1.00;;;;;;4994929;28;20201;-92
2023/03/19 04:12:56;;;;;;;25.17;16.37;;;7.10;1.00;;;;;;4994811;28;20310;-92
2023/03/19 04:15:23;;;;;;;25.80;15.63;;;7.10;1.00;;;;;;5000740;28;20209;-92
2023/03/19 04:17:50;;;;;;;26.03;16.63;;;7.10;1.00;;;;;;5003005;28;20673;-92
2023/03/19 04:20:17;;;;;;;24.47;15.67;;;7.10;1.00;;;;;;4994883;28;20205;-92
2023/03/19 04:22:44;;;;;;;31.43;18.57;;;7.10;1.00;;;;;;4994974;28;20195;-92
2023/03/19 04:25:12;;;;;;;35.57;20.37;;;7.10;1.00;;;;;;4995732;28;20333;-95
2023/03/19 04:27:39;;;;;;;42.23;24.63;;;7.00;1.00;;;;;;4995215;28;20205;-93
2023/03/19 04:30:07;;;;;;;32.10;19.57;;;6.90;1.00;;;;;;4998714;28;20217;-92
2023/03/19 04:32:35;;;;;;;25.83;16.13;;;6.90;1.00;;;;;;4997412;28;20222;-92
2023/03/19 04:35:02;;;;;;;29.20;16.13;;;6.90;1.00;;;;;;4994802;28;20207;-91
2023/03/19 04:37:30;;;;;;;27.97;16.63;;;6.80;1.00;;;;;;4981409;28;20201;-93
2023/03/19 04:39:56;;;;;;;27.07;16.00;;;6.80;1.00;;;;;;4994867;28;20290;-92
2023/03/19 04:42:25;;;;;;;34.97;20.67;;;6.70;1.00;;;;;;4994897;28;20217;-92
2023/03/19 04:44:52;;;;;;;28.10;19.50;;;6.80;1.00;;;;;;4996592;28;20204;-93
2023/03/19 04:47:19;;;;;;;30.50;18.50;;;6.80;1.00;;;;;;4989244;28;20202;-94
2023/03/19 04:49:45;;;;;;;27.70;18.77;;;6.70;1.00;;;;;;4997479;28;20225;-93
2023/03/19 04:52:12;;;;;;;31.37;19.70;;;6.80;1.00;;;;;;4998719;28;20313;-92
2023/03/19 04:54:39;;;;;;;28.37;18.27;;;6.70;1.00;;;;;;4998371;28;20267;-92
2023/03/19 04:57:06;;;;;;;29.43;18.50;;;6.70;1.00;;;;;;5002233;28;20208;-93
2023/03/19 04:59:34;;;;;;;27.93;18.30;;;6.80;1.00;;;;;;5006625;28;20673;-92
2023/03/19 05:02:01;;;;;;;29.97;20.43;;;6.80;1.00;;;;;;4998809;28;20195;-93
2023/03/19 05:04:28;;;;;;;31.30;19.27;;;6.90;1.00;;;;;;4998349;28;20297;-92
2023/03/19 05:06:56;;;;;;;34.27;17.00;;;7.00;1.00;;;;;;4986537;28;20215;-92
2023/03/19 05:09:22;;;;;;;29.13;17.50;;;7.00;1.00;;;;;;4996868;28;20214;-92
2023/03/19 05:11:50;;;;;;;25.83;17.50;;;7.10;1.00;;;;;;4995267;28;20256;-93
2023/03/19 05:14:17;;;;;;;28.27;17.30;;;7.20;1.00;;;;;;4993432;28;20197;-94
2023/03/19 05:16:45;;;;;;;27.97;17.43;;;7.30;1.00;;;;;;4997591;28;20200;-93
2023/03/19 05:19:12;;;;;;;24.93;16.33;;;7.30;1.00;;;;;;4998286;28;20203;-94
2023/03/19 05:21:39;;;;;;;26.60;17.33;;;7.40;1.00;;;;;;4998105;28;20210;-94
2023/03/19 05:24:06;;;;;;;26.73;17.83;;;7.40;99.90;;;;;;5002232;28;20658;-92
2023/03/19 05:26:33;;;;;;;33.97;20.13;;;7.40;99.90;;;;;;5000840;28;20206;-92
2023/03/19 05:29:00;;;;;;;29.07;19.23;;;7.50;99.90;;;;;;4998144;28;20199;-93
2023/03/19 05:31:26;;;;;;;30.03;19.03;;;7.50;99.90;;;;;;4997642;28;20214;-92
2023/03/19 05:33:55;;;;;;;29.83;18.20;;;7.60;99.90;;;;;;4997555;28;20233;-92
2023/03/19 05:36:22;;;;;;;28.63;17.47;;;7.60;99.90;;;;;;4997743;28;20217;-92
2023/03/19 05:38:49;;;;;;;26.20;17.07;;;7.60;99.90;;;;;;4997760;28;20199;-91
2023/03/19 05:41:16;;;;;;;29.43;16.03;;;7.70;99.90;;;;;;4997872;28;20206;-92
2023/03/19 05:43:43;;;;;;;25.10;16.03;;;7.70;99.90;;;;;;4997594;28;20554;-92
2023/03/19 05:46:10;;;;;;;29.57;15.60;;;7.70;99.90;;;;;;4997293;28;20209;-91
2023/03/19 05:48:37;;;;;;;23.23;15.43;;;7.70;99.90;;;;;;4997794;28;20326;-92
2023/03/19 05:51:05;;;;;;;24.07;16.10;;;7.80;99.90;;;;;;4993077;28;20238;-93
2023/03/19 05:53:32;;;;;;;28.37;17.73;;;7.80;99.90;;;;;;4982190;28;20216;-93
2023/03/19 05:55:59;;;;;;;32.07;19.33;;;7.90;99.90;;;;;;4996848;28;20205;-92
2023/03/19 05:58:27;;;;;;;27.30;16.70;;;7.90;99.90;;;;;;4997578;28;20257;-92
2023/03/19 06:00:55;;;;;;;24.87;16.57;;;7.90;99.90;;;;;;4997609;28;20209;-93
2023/03/19 06:03:22;;;;;;;24.37;16.30;;;7.90;99.90;;;;;;4997465;28;20633;-92
2023/03/19 06:05:49;;;;;;;28.37;16.97;;;7.90;99.90;;;;;;4997411;28;20207;-93
2023/03/19 06:08:18;;;;;;;25.43;16.97;;;8.00;99.90;;;;;;4997363;28;20257;-94
2023/03/19 06:10:45;;;;;;;25.00;16.20;;;8.00;99.90;;;;;;4997078;28;20195;-93
2023/03/19 06:13:12;;;;;;;24.23;16.80;;;8.00;99.90;;;;;;4997337;28;20222;-93
2023/03/19 06:15:39;;;;;;;23.27;14.57;;;8.00;99.90;;;;;;4997154;28;20199;-94
2023/03/19 06:18:06;;;;;;;24.23;16.67;;;8.10;99.90;;;;;;4999261;28;20202;-93
2023/03/19 06:20:33;;;;;;;26.03;17.77;;;8.10;99.90;;;;;;4997183;28;20269;-92
2023/03/19 06:22:59;;;;;;;25.00;15.70;;;8.10;99.90;;;;;;4996709;28;20566;-94
2023/03/19 06:25:27;;;;;;;30.67;17.10;;;8.20;99.90;;;;;;4996754;28;20682;-94
2023/03/19 06:27:54;;;;;;;26.37;16.70;;;8.30;99.90;;;;;;4997313;28;20209;-93
2023/03/19 06:30:21;;;;;;;24.23;15.67;;;8.30;99.90;;;;;;4996998;28;20206;-94
2023/03/19 06:32:48;;;;;;;28.57;15.30;;;8.30;99.90;;;;;;4996467;28;20245;-93
2023/03/19 06:35:15;;;;;;;23.57;15.70;;;8.40;99.90;;;;;;4996726;28;20203;-94
2023/03/19 06:37:42;;;;;;;21.70;15.33;;;8.40;99.90;;;;;;4996973;28;20199;-93
2023/03/19 06:40:10;;;;;;;24.10;14.73;;;8.50;99.90;;;;;;4997071;28;20205;-92
2023/03/19 06:42:38;;;;;;;23.97;16.40;;;8.50;99.90;;;;;;4996078;28;20203;-93
2023/03/19 06:45:06;;;;;;;32.17;19.97;;;8.60;99.90;;;;;;4996740;28;20196;-94
2023/03/19 06:47:33;;;;;;;26.73;17.40;;;8.60;99.90;;;;;;4996902;28;20664;-93
2023/03/19 06:50:00;;;;;;;48.83;28.30;;;8.70;99.90;;;;;;4996849;28;20283;-93
2023/03/19 06:52:27;;;;;;;33.23;20.30;;;8.70;99.90;;;;;;5003868;28;20235;-95
2023/03/19 06:54:53;;;;;;;27.57;16.23;;;8.80;99.90;;;;;;5002963;28;20187;-96
2023/03/19 06:57:20;;;;;;;26.30;15.47;;;8.80;99.90;;;;;;5009774;28;20213;-96
2023/03/19 06:59:49;;;;;;;34.63;19.83;;;8.80;99.90;;;;;;5007157;28;20208;-94
2023/03/19 07:02:16;;;;;;;35.33;22.40;;;8.90;99.90;;;;;;5663108;23;20263;-94
2023/03/19 07:04:43;;;;;;;41.33;25.07;;;8.90;99.90;;;;;;5015683;28;20196;-91
2023/03/19 07:07:09;;;;;;;37.93;23.00;;;9.00;99.90;;;;;;5026966;28;20206;-91
2023/03/19 07:09:36;;;;;;;91.77;53.07;;;9.10;99.90;;;;;;5015482;28;20578;-92
2023/03/19 07:12:04;;;;;;;31.37;19.30;;;9.10;99.90;;;;;;5015829;28;20254;-93
2023/03/19 07:14:30;;;;;;;27.27;16.73;;;9.30;99.90;;;;;;5015576;28;20271;-93
2023/03/19 07:16:59;;;;;;;25.17;15.00;;;9.50;99.90;;;;;;5015864;28;20203;-93
2023/03/19 07:19:26;;;;;;;23.27;15.40;;;9.80;99.90;;;;;;5005591;28;20233;-95
2023/03/19 07:21:52;;;;;;;26.67;16.07;;;10.00;99.90;;;;;;5016468;28;20288;-94
2023/03/19 07:24:19;;;;;;;26.37;17.30;;;10.30;99.90;;;;;;5016790;28;20265;-95
2023/03/19 07:26:46;;;;;;;26.20;16.63;;;10.50;99.90;;;;;;5016547;28;20284;-95
2023/03/19 07:29:13;;;;;;;24.03;15.93;;;10.60;99.90;;;;;;5016490;28;20205;-96
2023/03/19 07:31:41;;;;;;;24.67;16.03;;;10.60;99.90;;;;;;5016576;28;20209;-95
2023/03/19 07:34:09;;;;;;;25.70;16.50;;;10.60;99.90;;;;;;5018679;28;20245;-94
2023/03/19 07:36:36;;;;;;;28.00;16.90;;;10.50;99.90;;;;;;5018010;28;20585;-94
2023/03/19 07:39:03;;;;;;;28.03;18.53;;;10.50;99.90;;;;;;5016252;28;20581;-94
2023/03/19 07:41:30;;;;;;;30.90;18.00;;;10.40;99.90;;;;;;5015753;28;20252;-94
2023/03/19 07:43:57;;;;;;;30.63;18.37;;;10.40;99.90;;;;;;5015008;28;20195;-95
2023/03/19 07:46:24;;;;;;;26.83;18.37;;;10.40;99.90;;;;;;5014902;28;20213;-95
2023/03/19 07:48:51;;;;;;;26.57;17.23;;;10.30;99.90;;;;;;5015924;28;20187;-94
2023/03/19 07:51:20;;;;;;;24.53;17.27;;;10.30;99.90;;;;;;5015945;28;20261;-94
2023/03/19 07:53:47;;;;;;;29.90;18.10;;;10.30;99.90;;;;;;5015863;28;20223;-94
2023/03/19 07:56:13;;;;;;;24.97;17.07;;;10.30;99.90;;;;;;5015510;28;20197;-96
2023/03/19 07:58:41;;;;;;;26.27;17.40;;;10.40;99.90;;;;;;5016218;28;20288;-94
2023/03/19 08:01:08;;;;;;;28.27;18.00;;;10.50;99.90;;;;;;5014860;28;20202;-93
2023/03/19 08:03:35;;;;;;;26.30;17.23;;;10.50;99.90;;;;;;5010972;28;20222;-94
2023/03/19 08:06:02;;;;;;;27.60;18.80;;;10.50;99.90;;;;;;5014772;28;20199;-93
2023/03/19 08:08:33;;;;;;;25.53;16.70;;;10.60;99.90;;;;;;5014549;28;20204;-93
2023/03/19 08:11:00;;;;;;;27.73;17.83;;;10.70;99.90;;;;;;5005721;28;20538;-93
2023/03/19 08:13:27;;;;;;;28.60;19.73;;;10.80;99.90;;;;;;5015296;28;20228;-94
2023/03/19 08:15:55;;;;;;;27.87;18.83;;;10.80;99.90;;;;;;5024685;28;20210;-93
2023/03/19 08:18:22;;;;;;;28.13;18.23;;;10.80;99.90;;;;;;5017006;28;20230;-93
2023/03/19 08:20:49;;;;;;;29.07;17.60;;;10.90;99.90;;;;;;5015161;28;20259;-93
2023/03/19 08:23:16;;;;;;;28.40;18.27;;;11.00;99.90;;;;;;5006175;28;20625;-93
2023/03/19 08:25:44;;;;;;;27.87;18.63;;;11.10;99.90;;;;;;4998819;28;20198;-92
2023/03/19 08:28:11;;;;;;;27.77;17.70;;;11.30;99.90;;;;;;5012621;28;20204;-93
2023/03/19 08:30:39;;;;;;;25.23;16.50;;;11.30;99.90;;;;;;5014543;28;20220;-94
2023/03/19 08:33:06;;;;;;;26.13;17.53;;;11.50;99.90;;;;;;5008653;28;20224;-95
2023/03/19 08:35:32;;;;;;;27.60;18.40;;;11.60;99.90;;;;;;5022334;28;20208;-96
2023/03/19 08:37:59;;;;;;;27.47;17.83;;;11.70;99.90;;;;;;5021048;28;20196;-95
2023/03/19 08:40:26;;;;;;;25.13;16.00;;;11.70;99.90;;;;;;5020668;28;20675;-96
2023/03/19 08:42:55;;;;;;;22.77;15.53;;;11.80;99.90;;;;;;5019090;28;20215;-96
2023/03/19 08:45:23;;;;;;;26.17;16.50;;;11.90;98.30;;;;;;5021967;28;20209;-96
2023/03/19 08:47:50;;;;;;;26.10;16.67;;;11.90;97.50;;;;;;5022604;28;20319;-96
2023/03/19 08:50:17;;;;;;;24.50;15.77;;;12.00;91.30;;;;;;5024602;28;20296;-95
2023/03/19 08:52:45;;;;;;;27.13;16.37;;;12.00;92.40;;;;;;5005919;28;20265;-96
2023/03/19 08:55:12;;;;;;;25.03;15.70;;;12.00;82.50;;;;;;5004778;28;20256;-96
2023/03/19 08:57:39;;;;;;;25.17;15.70;;;12.10;83.50;;;;;;5016457;28;20690;-96
2023/03/19 09:00:09;;;;;;;26.37;16.23;;;12.20;85.60;;;;;;5024206;28;20234;-96
2023/03/19 09:02:36;;;;;;;23.43;15.83;;;12.30;82.90;;;;;;5027506;28;20257;-96
2023/03/19 09:05:04;;;;;;;22.87;15.53;;;12.40;71.50;;;;;;5026330;28;20190;-96
2023/03/19 09:07:30;;;;;;;21.43;15.53;;;12.50;75.30;;;;;;5047246;28;20198;-96
2023/03/19 09:09:57;;;;;;;23.57;15.90;;;12.60;60.20;;;;;;5292631;23;20219;-94
2023/03/19 09:12:25;;;;;;;23.20;16.03;;;12.60;57.80;;;;;;5024281;28;20235;-96
2023/03/19 09:14:52;;;;;;;23.80;16.37;;;12.70;57.40;;;;;;5011554;28;20247;-96
2023/03/19 09:17:20;;;;;;;22.57;15.67;;;12.70;46.80;;;;;;5073008;23;20295;-96
2023/03/19 09:19:47;;;;;;;24.90;16.43;;;12.80;47.60;;;;;;5024579;28;20222;-95
2023/03/19 09:22:14;;;;;;;24.90;16.37;;;12.80;51.50;;;;;;5014004;28;20234;-93
2023/03/19 09:24:40;;;;;;;25.83;16.00;;;12.90;57.50;;;;;;5014091;28;20275;-94
2023/03/19 09:27:07;;;;;;;22.97;15.70;;;13.00;56.40;;;;;;5014663;28;20203;-92
2023/03/19 09:29:34;;;;;;;23.43;16.23;;;13.10;55.10;;;;;;5013700;28;20274;-94
2023/03/19 09:32:01;;;;;;;24.57;16.47;;;13.20;53.40;;;;;;5015732;28;20201;-94
2023/03/19 09:34:29;;;;;;;27.10;17.20;;;13.40;52.10;;;;;;5017149;28;20214;-93
2023/03/19 09:36:56;;;;;;;42.07;26.77;;;13.50;47.30;;;;;;5017652;28;20200;-95
2023/03/19 09:39:23;;;;;;;43.27;24.77;;;13.50;41.40;;;;;;5021424;28;20195;-94
2023/03/19 09:42:02;;;;;;;28.57;17.87;;;13.60;36.20;;;;;;5016948;28;20208;-93
2023/03/19 09:44:31;;;;;;;30.60;19.37;;;13.70;35.90;;;;;;5008316;28;20288;-93
2023/03/19 09:47:04;;;;;;;45.93;27.83;;;13.90;30.50;;;;;;5013164;28;20196;-93
2023/03/19 09:49:46;;;;;;;23.73;16.03;;;13.90;49.40;;;;;;5017507;28;20208;-92
2023/03/19 09:52:31;;;;;;;25.70;16.30;;;14.00;25.60;;;;;;5003657;28;20205;-93
2023/03/19 09:55:05;;;;;;;22.57;14.63;;;14.00;22.10;;;;;;5017344;28;20223;-94
2023/03/19 09:57:33;;;;;;;22.33;14.17;;;14.10;19.50;;;;;;5019184;28;20670;-94
2023/03/19 10:00:00;;;;;;;22.90;15.50;;;14.20;18.40;;;;;;5017338;28;20209;-95
2023/03/19 10:02:40;;;;;;;27.17;17.83;;;14.40;13.70;;;;;;5017470;28;20205;-96
2023/03/19 10:05:21;;;;;;;22.27;13.40;;;14.50;14.20;;;;;;5004797;28;20658;-94
2023/03/19 10:08:10;;;;;;;24.10;15.30;;;14.60;11.70;;;;;;5016265;28;20292;-93
2023/03/19 10:10:49;;;;;;;22.37;14.30;;;14.60;10.70;;;;;;5028958;28;20204;-96
2023/03/19 10:13:29;;;;;;;20.90;14.17;;;14.70;9.40;;;;;;5016989;28;20195;-96
2023/03/19 10:15:59;;;;;;;21.07;14.50;;;14.80;7.10;;;;;;5017688;28;20642;-96
2023/03/19 10:18:31;;;;;;;18.60;12.93;;;14.90;4.90;;;;;;5026151;28;20194;-96
2023/03/19 10:23:40;;;;;;;17.93;13.23;;;14.80;17.50;;;;;;5980304;23;20300;-96
2023/03/19 10:26:12;;;;;;;19.45;12.80;;;14.90;1.00;;;;;;5075532;23;20230;-96
2023/03/19 10:28:42;;;;;;;20.13;13.02;;;14.90;7.60;;;;;;5020453;28;20198;-96
2023/03/19 10:31:20;;;;;;;20.95;13.43;;;15.00;1.00;;;;;;5019045;28;20204;-95
2023/03/19 10:33:56;;;;;;;20.40;13.17;;;15.00;1.00;;;;;;5009132;28;20295;-96
2023/03/19 10:36:30;;;;;;;20.00;13.23;;;15.10;1.00;;;;;;5016842;28;20190;-95
2023/03/19 10:38:58;;;;;;;20.17;14.13;;;15.20;1.00;;;;;;5017151;28;20270;-95
2023/03/19 10:41:34;;;;;;;19.13;13.60;;;15.30;1.00;;;;;;5016825;28;20201;-95
2023/03/19 10:44:03;;;;;;;17.90;12.57;;;15.40;1.00;;;;;;5003019;28;20229;-94
2023/03/19 10:46:37;;;;;;;17.52;12.35;;;15.60;1.00;;;;;;5016155;28;20206;-95
2023/03/19 10:49:04;;;;;;;17.42;12.35;;;15.60;1.00;;;;;;5016421;28;20198;-94
2023/03/19 10:51:32;;;;;;;18.48;12.38;;;15.80;1.00;;;;;;5012963;28;20197;-95
2023/03/19 10:54:00;;;;;;;19.67;13.82;;;15.90;1.00;;;;;;5012165;28;20229;-95
2023/03/19 10:56:30;;;;;;;17.77;12.25;;;16.00;1.00;;;;;;5017771;28;20203;-96
2023/03/19 10:58:59;;;;;;;22.35;14.25;;;16.10;1.00;;;;;;5017559;28;20876;-96
2023/03/19 11:01:33;;;;;;;22.40;13.23;;;16.10;1.00;;;;;;5016028;28;20218;-94
2023/03/19 11:04:02;;;;;;;20.45;14.20;;;16.20;1.00;;;;;;5016984;28;20246;-94
2023/03/19 11:06:33;;;;;;;20.88;14.05;;;16.30;1.00;;;;;;5014625;28;20208;-95
2023/03/19 11:09:04;;;;;;;17.73;13.20;;;16.30;1.00;;;;;;5017316;28;20665;-95
2023/03/19 11:11:35;;;;;;;19.70;14.10;;;16.40;1.00;;;;;;5015687;28;20204;-93
2023/03/19 11:14:14;;;;;;;20.38;15.27;;;16.30;1.00;;;;;;5026117;28;20228;-94
2023/03/19 11:16:54;;;;;;;19.25;13.48;;;16.30;1.00;;;;;;5002326;28;20201;-94
2023/03/19 11:19:23;;;;;;;18.08;13.90;;;16.30;1.00;;;;;;5028373;28;20661;-95
2023/03/19 11:22:07;;;;;;;19.40;15.77;;;16.30;1.00;;;;;;5015205;28;20216;-95
2023/03/19 11:24:37;;;;;;;17.77;12.75;;;16.30;1.00;;;;;;5015231;28;20226;-94
2023/03/19 11:27:05;;;;;;;16.67;12.30;;;16.40;1.00;;;;;;5010773;28;20304;-95
2023/03/19 11:29:33;;;;;;;19.52;16.50;;;16.40;1.00;;;;;;5015555;28;20692;-95
2023/03/19 11:32:11;;;;;;;17.77;13.57;;;16.40;1.00;;;;;;5002152;28;20208;-95
2023/03/19 11:34:49;;;;;;;15.35;12.32;;;16.50;1.00;;;;;;5015169;28;20198;-96
2023/03/19 11:37:27;;;;;;;16.92;11.70;;;16.60;1.00;;;;;;5015453;28;20312;-94
2023/03/19 11:40:02;;;;;;;23.23;15.23;;;16.60;1.00;;;;;;5015532;28;20288;-95
2023/03/19 11:43:05;;;;;;;20.35;14.43;;;16.70;1.00;;;;;;5015250;28;20226;-94
2023/03/19 11:45:36;;;;;;;18.10;13.07;;;16.90;1.00;;;;;;4953682;29;20279;-96
2023/03/19 11:48:22;;;;;;;21.13;13.45;;;17.10;1.00;;;;;;4955365;29;20294;-95
2023/03/19 11:50:54;;;;;;;21.38;14.45;;;17.30;1.00;;;;;;4955331;28;20222;-95
2023/03/19 11:53:27;;;;;;;22.65;15.02;;;17.50;1.00;;;;;;4954706;28;20204;-95
2023/03/19 11:56:08;;;;;;;28.40;18.40;;;17.70;1.00;;;;;;4965935;28;20745;-94
2023/03/19 11:59:04;;;;;;;21.83;14.93;;;17.90;1.00;;;;;;4955163;29;21788;-94
2023/03/19 12:01:49;;;;;;;20.98;14.18;;;18.10;1.00;;;;;;4951371;28;20732;-93
2023/03/19 12:04:42;;;;;;;19.50;13.30;;;18.10;1.00;;;;;;4954587;29;20293;-96
2023/03/19 12:07:17;;;;;;;20.65;14.25;;;18.10;1.00;;;;;;4955070;29;20210;-94
2023/03/19 12:09:53;;;;;;;15.32;11.45;;;18.20;1.00;;;;;;4955000;29;20691;-95
2023/03/19 12:12:25;;;;;;;32.00;24.00;;;18.20;1.00;;;;;;4954349;29;20691;-94
2023/03/19 12:15:04;;;;;;;19.50;13.27;;;18.20;1.00;;;;;;4954424;29;20228;-94
2023/03/19 12:17:57;;;;;;;21.15;13.52;;;18.40;1.00;;;;;;4954211;29;20222;-94
2023/03/19 12:20:37;;;;;;;38.65;23.63;;;18.40;1.00;;;;;;4944693;29;20238;-94
2023/03/19 12:23:14;;;;;;;24.40;16.10;;;18.60;1.00;;;;;;4998068;28;20202;-94
2023/03/19 12:25:51;;;;;;;13.80;10.68;;;18.50;1.00;;;;;;5014529;28;20230;-94
2023/03/19 12:28:24;;;;;;;13.63;10.48;;;18.50;1.00;;;;;;5014496;28;20232;-94
2023/03/19 12:31:09;;;;;;;13.07;10.13;;;18.50;1.00;;;;;;5014769;28;20205;-93
2023/03/19 12:33:46;;;;;;;12.88;10.57;;;18.30;1.00;;;;;;5014067;28;20210;-94
2023/03/19 12:36:18;;;;;;;12.10;10.55;;;18.30;1.00;;;;;;5013898;28;20218;-95
2023/03/19 12:38:49;;;;;;;14.50;9.98;;;18.20;1.00;;;;;;5013265;28;20209;-95
2023/03/19 12:41:21;;;;;;;15.15;10.57;;;18.20;1.00;;;;;;5012710;28;20654;-94
2023/03/19 12:43:55;;;;;;;13.07;10.02;;;18.30;1.00;;;;;;5014559;28;20198;-94
2023/03/19 12:51:36;;;;;;;14.40;9.97;;;18.70;1.00;;;;;;5287803;23;20273;-96
2023/03/19 12:54:08;;;;;;;13.52;10.10;;;18.80;1.00;;;;;;4995801;28;20225;-96
2023/03/19 12:56:39;;;;;;;12.23;10.05;;;18.80;1.00;;;;;;5007189;28;20195;-96